createdAt,value
2022-07-30T00:00:40.570Z,96359.56
2022-07-30T00:03:09.030Z,96361.31
2022-07-30T00:05:37.384Z,96365.81
2022-07-30T00:08:05.953Z,96360.34
2022-07-30T00:10:34.341Z,96352.34
2022-07-30T00:13:02.711Z,96353.22
2022-07-30T00:15:31.242Z,96352.28
2022-07-30T00:18:01.002Z,96347.16
2022-07-30T00:20:29.658Z,96338.59
2022-07-30T00:22:58.320Z,96333.38
2022-07-30T00:25:26.884Z,96333.69
2022-07-30T00:27:55.270Z,96322.31
2022-07-30T00:30:23.871Z,96329.28
2022-07-30T00:32:52.500Z,96328.56
2022-07-30T00:35:22.364Z,96319.84
2022-07-30T00:37:50.809Z,96328.72
2022-07-30T00:40:19.300Z,96341.50
2022-07-30T00:42:48.904Z,96332.75
2022-07-30T00:45:18.513Z,96327.88
2022-07-30T00:47:47.120Z,96336.56
2022-07-30T00:50:16.034Z,96346.88
2022-07-30T00:52:47.557Z,96336.38
2022-07-30T00:55:16.678Z,96337.03
2022-07-30T00:57:45.657Z,96337.22
2022-07-30T01:00:17.046Z,96336.84
2022-07-30T01:02:45.697Z,96328.56
2022-07-30T01:05:14.286Z,96323.56
2022-07-30T01:07:42.994Z,96331.19
2022-07-30T01:10:16.160Z,96326.72
2022-07-30T01:12:45.271Z,96327.56
2022-07-30T01:15:14.081Z,96327.84
2022-07-30T01:17:42.557Z,96333.88
2022-07-30T01:20:14.621Z,96329.16
2022-07-30T01:22:52.631Z,96333.97
2022-07-30T01:25:29.730Z,96329.00
2022-07-30T01:28:01.304Z,96322.94
2022-07-30T01:30:32.658Z,96317.59
2022-07-30T01:33:04.530Z,96322.69
2022-07-30T01:35:34.653Z,96312.31
2022-07-30T01:38:05.776Z,96317.94
2022-07-30T01:40:34.545Z,96320.47
2022-07-30T01:43:04.528Z,96314.91
2022-07-30T01:45:41.391Z,96317.22
2022-07-30T01:48:14.136Z,96310.16
2022-07-30T01:50:45.498Z,96322.50
2022-07-30T01:53:16.225Z,96326.88
2022-07-30T01:55:45.313Z,96325.75
2022-07-30T01:58:15.540Z,96330.16
2022-07-30T02:00:45.026Z,96322.34
2022-07-30T02:03:13.686Z,96330.50
2022-07-30T02:05:43.035Z,96328.63
2022-07-30T02:08:14.365Z,96327.03
2022-07-30T02:10:45.391Z,96323.09
2022-07-30T02:13:17.988Z,96327.34
2022-07-30T02:15:51.196Z,96323.94
2022-07-30T02:18:24.705Z,96318.34
2022-07-30T02:20:57.988Z,96319.00
2022-07-30T02:23:28.241Z,96322.75
2022-07-30T02:25:58.299Z,96327.78
2022-07-30T02:28:29.179Z,96325.66
2022-07-30T02:31:01.558Z,96335.59
2022-07-30T02:33:41.227Z,96329.03
2022-07-30T02:36:17.922Z,96327.47
2022-07-30T02:38:47.999Z,96323.31
2022-07-30T02:41:16.832Z,96326.31
2022-07-30T02:43:47.300Z,96319.94
2022-07-30T02:46:15.549Z,96326.09
2022-07-30T02:48:44.409Z,96319.59
2022-07-30T02:51:13.969Z,96323.59
2022-07-30T02:53:44.572Z,96332.16
2022-07-30T02:56:15.973Z,96318.91
2022-07-30T02:58:46.968Z,96319.16
2022-07-30T03:01:17.133Z,96318.66
2022-07-30T03:03:46.582Z,96319.84
2022-07-30T03:06:16.163Z,96318.97
2022-07-30T03:08:45.331Z,96321.53
2022-07-30T03:11:14.645Z,96316.97
2022-07-30T03:16:13.488Z,96319.03
2022-07-30T03:18:43.154Z,96324.41
2022-07-30T03:21:12.156Z,96320.19
2022-07-30T03:23:41.396Z,96323.69
2022-07-30T03:26:10.312Z,96314.38
2022-07-30T03:28:40.361Z,96318.38
2022-07-30T03:31:10.650Z,96323.00
2022-07-30T03:33:42.099Z,96316.78
2022-07-30T03:36:11.638Z,96326.75
2022-07-30T03:38:41.243Z,96316.91
2022-07-30T03:41:09.790Z,96320.22
2022-07-30T03:43:39.999Z,96331.94
2022-07-30T03:46:08.876Z,96329.63
2022-07-30T03:48:37.967Z,96328.78
2022-07-30T03:51:10.149Z,96329.88
2022-07-30T03:53:39.206Z,96332.06
2022-07-30T03:56:08.327Z,96343.72
2022-07-30T03:58:38.583Z,96342.03
2022-07-30T04:01:07.095Z,96349.88
2022-07-30T04:03:35.652Z,96352.53
2022-07-30T04:06:04.192Z,96340.13
2022-07-30T04:08:34.077Z,96353.59
2022-07-30T04:11:02.501Z,96354.81
2022-07-30T04:13:30.901Z,96361.63
2022-07-30T04:16:38.199Z,96364.94
2022-07-30T04:18:52.992Z,96360.81
2022-07-30T04:21:22.387Z,96370.09
2022-07-30T04:24:02.931Z,96373.97
2022-07-30T04:26:35.501Z,96367.22
2022-07-30T04:29:06.100Z,96371.94
2022-07-30T04:31:39.907Z,96378.75
2022-07-30T04:34:09.846Z,96378.31
2022-07-30T04:36:38.242Z,96382.47
2022-07-30T04:39:08.350Z,96380.59
2022-07-30T04:41:49.545Z,96388.22
2022-07-30T04:44:19.537Z,96374.13
2022-07-30T04:46:48.075Z,96391.31
2022-07-30T04:49:17.536Z,96380.50
2022-07-30T04:51:46.456Z,96383.94
2022-07-30T04:54:17.292Z,96381.63
2022-07-30T04:56:52.484Z,96378.41
2022-07-30T04:59:25.802Z,96392.03
2022-07-30T05:01:55.233Z,96385.00
2022-07-30T05:04:24.127Z,96374.50
2022-07-30T05:06:53.133Z,96376.88
2022-07-30T05:09:24.072Z,96370.03
2022-07-30T05:11:52.794Z,96370.31
2022-07-30T05:14:21.216Z,96375.63
2022-07-30T05:16:49.783Z,96378.13
2022-07-30T05:19:18.888Z,96384.22
2022-07-30T05:21:47.339Z,96383.31
2022-07-30T05:24:16.033Z,96394.91
2022-07-30T05:26:46.016Z,96396.97
2022-07-30T05:29:19.919Z,96400.78
2022-07-30T05:31:49.113Z,96398.44
2022-07-30T05:34:17.877Z,96399.22
2022-07-30T05:36:46.324Z,96398.84
2022-07-30T05:39:16.353Z,96397.97
2022-07-30T05:41:46.161Z,96405.84
2022-07-30T05:44:14.495Z,96395.44
2022-07-30T05:46:42.991Z,96396.28
2022-07-30T05:49:11.602Z,96398.88
2022-07-30T05:51:40.283Z,96404.94
2022-07-30T05:54:09.934Z,96407.97
2022-07-30T05:56:38.300Z,96410.69
2022-07-30T05:59:08.454Z,96405.84
2022-07-30T06:01:36.843Z,96407.00
2022-07-30T06:04:05.515Z,96418.75
2022-07-30T06:06:33.927Z,96424.75
2022-07-30T06:09:02.330Z,96416.28
2022-07-30T06:11:30.702Z,96419.56
2022-07-30T06:13:59.028Z,96423.66
2022-07-30T06:16:28.856Z,96420.59
2022-07-30T06:18:57.247Z,96430.78
2022-07-30T06:21:25.595Z,96431.91
2022-07-30T06:23:53.920Z,96437.06
2022-07-30T06:26:22.514Z,96437.75
2022-07-30T06:28:50.828Z,96428.41
2022-07-30T06:31:19.395Z,96432.50
2022-07-30T06:33:49.130Z,96436.50
2022-07-30T06:36:17.575Z,96443.25
2022-07-30T06:38:45.926Z,96435.19
2022-07-30T06:41:15.815Z,96442.75
2022-07-30T06:43:44.271Z,96440.84
2022-07-30T06:46:12.734Z,96448.53
2022-07-30T06:48:42.367Z,96451.69
2022-07-30T06:51:12.166Z,96457.22
2022-07-30T06:53:42.642Z,96452.81
2022-07-30T06:56:11.481Z,96457.00
2022-07-30T06:58:40.317Z,96445.66
2022-07-30T07:01:11.365Z,96455.97
2022-07-30T07:03:40.816Z,96457.84
2022-07-30T07:06:09.436Z,96459.38
2022-07-30T07:08:39.699Z,96464.00
2022-07-30T07:11:08.175Z,96460.56
2022-07-30T07:13:36.734Z,96456.69
2022-07-30T07:16:05.588Z,96462.50
2022-07-30T07:18:33.950Z,96461.09
2022-07-30T07:21:02.324Z,96462.81
2022-07-30T07:23:39.768Z,96460.28
2022-07-30T07:26:12.755Z,96459.94
2022-07-30T07:28:41.374Z,96460.63
2022-07-30T07:31:10.425Z,96464.69
2022-07-30T07:33:40.535Z,96461.44
2022-07-30T07:36:09.026Z,96460.19
2022-07-30T07:38:37.959Z,96459.69
2022-07-30T07:41:06.560Z,96455.56
2022-07-30T07:43:36.266Z,96454.31
2022-07-30T07:46:04.857Z,96457.91
2022-07-30T07:48:33.334Z,96457.69
2022-07-30T07:51:01.811Z,96460.50
2022-07-30T07:53:30.195Z,96451.81
2022-07-30T07:55:58.805Z,96449.72
2022-07-30T07:58:27.444Z,96452.09
2022-07-30T08:00:57.203Z,96447.25
2022-07-30T08:03:25.592Z,96439.94
2022-07-30T08:06:04.687Z,96448.03
2022-07-30T08:08:36.646Z,96448.03
2022-07-30T08:11:05.686Z,96443.75
2022-07-30T08:13:49.271Z,96454.31
2022-07-30T08:16:22.783Z,96441.25
2022-07-30T08:18:51.283Z,96465.31
2022-07-30T08:21:19.666Z,96450.25
2022-07-30T08:23:48.063Z,96454.00
2022-07-30T08:26:16.448Z,96451.56
2022-07-30T08:28:45.714Z,96451.56
2022-07-30T08:31:14.444Z,96456.09
2022-07-30T08:33:44.170Z,96448.25
2022-07-30T08:36:12.569Z,96449.47
2022-07-30T08:38:40.993Z,96452.97
2022-07-30T08:41:09.449Z,96443.22
2022-07-30T08:43:38.280Z,96456.13
2022-07-30T08:46:10.937Z,96449.97
2022-07-30T08:48:39.650Z,96450.25
2022-07-30T08:51:09.594Z,96448.84
2022-07-30T08:53:38.112Z,96446.38
2022-07-30T08:56:08.993Z,96452.69
2022-07-30T08:58:37.391Z,96452.56
2022-07-30T09:01:07.019Z,96459.41
2022-07-30T09:03:35.771Z,96460.69
2022-07-30T09:06:13.960Z,96467.34
2022-07-30T09:08:42.447Z,96459.25
2022-07-30T09:11:10.974Z,96461.28
2022-07-30T09:13:41.786Z,96463.69
2022-07-30T09:16:20.731Z,96459.59
2022-07-30T09:18:49.755Z,96454.59
2022-07-30T09:21:23.283Z,96460.19
2022-07-30T09:23:59.130Z,96464.50
2022-07-30T09:26:27.862Z,96456.34
2022-07-30T09:28:56.662Z,96448.34
2022-07-30T09:31:25.144Z,96450.22
2022-07-30T09:33:53.577Z,96449.91
2022-07-30T09:36:23.296Z,96450.13
2022-07-30T09:38:53.159Z,96460.16
2022-07-30T09:41:39.108Z,96443.88
2022-07-30T09:44:08.386Z,96449.25
2022-07-30T09:46:45.089Z,96450.16
2022-07-30T09:49:17.444Z,96449.41
2022-07-30T09:51:54.375Z,96447.03
2022-07-30T09:54:26.825Z,96454.09
2022-07-30T09:57:25.690Z,96452.34
2022-07-30T09:59:57.586Z,96449.91
2022-07-30T10:02:32.816Z,96452.25
2022-07-30T10:05:20.379Z,96445.97
2022-07-30T10:07:52.454Z,96448.59
2022-07-30T10:10:25.505Z,96446.31
2022-07-30T10:12:56.366Z,96436.25
2022-07-30T10:15:26.627Z,96447.63
2022-07-30T10:17:56.533Z,96441.44
2022-07-30T10:20:26.458Z,96447.63
2022-07-30T10:22:56.693Z,96442.59
2022-07-30T10:25:28.138Z,96442.59
2022-07-30T10:27:57.873Z,96444.63
2022-07-30T10:30:28.021Z,96443.13
2022-07-30T10:33:00.014Z,96442.75
2022-07-30T10:35:34.535Z,96403.84
2022-07-30T10:38:13.905Z,96436.69
2022-07-30T10:40:49.228Z,96442.81
2022-07-30T10:43:52.826Z,96449.47
2022-07-30T10:46:33.514Z,96446.56
2022-07-30T10:49:17.461Z,96438.53
2022-07-30T10:51:48.791Z,96437.47
2022-07-30T10:54:47.416Z,96430.34
2022-07-30T10:57:31.964Z,96436.22
2022-07-30T11:00:15.558Z,96435.41
2022-07-30T11:03:17.985Z,96436.50
2022-07-30T11:05:48.815Z,96427.84
2022-07-30T11:08:37.655Z,96426.38
2022-07-30T11:12:01.034Z,96432.16
2022-07-30T11:15:06.659Z,96423.81
2022-07-30T11:18:12.253Z,96437.16
2022-07-30T11:20:48.467Z,96426.63
2022-07-30T11:23:39.581Z,96411.38
2022-07-30T11:26:14.253Z,96425.91
2022-07-30T11:28:44.713Z,96424.16
2022-07-30T11:31:56.455Z,96421.75
2022-07-30T11:34:30.708Z,96438.28
2022-07-30T11:37:22.192Z,96438.50
2022-07-30T11:40:13.786Z,96457.78
2022-07-30T11:42:43.562Z,96461.31
2022-07-30T11:45:29.495Z,96444.53
2022-07-30T11:48:00.311Z,96440.22
2022-07-30T11:50:32.014Z,96439.88
2022-07-30T11:53:01.694Z,96444.50
2022-07-30T11:55:32.642Z,96446.91
2022-07-30T11:58:02.165Z,96444.78
2022-07-30T12:00:36.935Z,96431.97
2022-07-30T12:03:09.911Z,96434.19
2022-07-30T12:05:40.466Z,96427.25
2022-07-30T12:08:09.176Z,96442.72
2022-07-30T12:10:59.931Z,96434.97
2022-07-30T12:13:45.314Z,96431.00
2022-07-30T12:16:15.914Z,96433.53
2022-07-30T12:18:44.584Z,96428.78
2022-07-30T12:21:16.169Z,96425.97
2022-07-30T12:23:52.879Z,96418.97
2022-07-30T12:26:22.532Z,96413.31
2022-07-30T12:28:51.086Z,96413.63
2022-07-30T12:31:19.501Z,96407.84
2022-07-30T12:33:48.027Z,96429.63
2022-07-30T12:36:27.723Z,96429.84
2022-07-30T12:38:58.019Z,96417.34
2022-07-30T12:41:41.856Z,96413.50
2022-07-30T12:44:10.508Z,96431.13
2022-07-30T12:46:40.972Z,96439.50
2022-07-30T12:49:17.498Z,96407.81
2022-07-30T12:52:00.292Z,96422.72
2022-07-30T12:54:29.879Z,96426.53
2022-07-30T12:57:00.662Z,96426.88
2022-07-30T12:59:29.966Z,96421.97
2022-07-30T13:02:00.501Z,96422.59
2022-07-30T13:04:29.645Z,96414.06
2022-07-30T13:07:07.044Z,96412.25
2022-07-30T13:09:35.698Z,96431.47
2022-07-30T13:12:04.459Z,96433.44
2022-07-30T13:14:32.999Z,96437.06
2022-07-30T13:17:04.001Z,96430.28
2022-07-30T13:19:32.960Z,96432.72
2022-07-30T13:22:01.297Z,96446.13
2022-07-30T13:24:31.059Z,96425.88
2022-07-30T13:26:59.451Z,96426.75
2022-07-30T13:29:27.779Z,96424.44
2022-07-30T13:31:56.169Z,96417.69
2022-07-30T13:34:24.536Z,96421.06
2022-07-30T13:36:52.909Z,96427.41
2022-07-30T13:39:21.282Z,96417.16
2022-07-30T13:41:51.068Z,96422.59
2022-07-30T13:44:19.400Z,96427.94
2022-07-30T13:46:47.814Z,96417.16
2022-07-30T13:49:16.270Z,96407.34
2022-07-30T13:51:44.629Z,96398.38
2022-07-30T13:54:13.912Z,96393.66
2022-07-30T13:56:42.478Z,96401.94
2022-07-30T13:59:12.469Z,96400.91
2022-07-30T14:01:40.901Z,96401.66
2022-07-30T14:04:09.508Z,96399.78
2022-07-30T14:06:37.875Z,96399.66
2022-07-30T14:09:06.412Z,96398.31
2022-07-30T14:11:35.156Z,96392.34
2022-07-30T14:14:03.514Z,96392.56
2022-07-30T14:16:45.105Z,96402.41
2022-07-30T14:19:23.032Z,96406.91
2022-07-30T14:21:53.951Z,96401.91
2022-07-30T14:24:22.496Z,96409.25
2022-07-30T14:26:58.880Z,96396.28
2022-07-30T14:29:27.658Z,96397.88
2022-07-30T14:31:57.564Z,96390.00
2022-07-30T14:34:25.952Z,96381.72
2022-07-30T14:36:54.303Z,96387.44
2022-07-30T14:39:22.875Z,96387.63
2022-07-30T14:41:52.404Z,96401.50
2022-07-30T14:44:24.426Z,96378.50
2022-07-30T14:46:53.185Z,96388.72
2022-07-30T14:49:24.151Z,96396.16
2022-07-30T14:51:52.878Z,96389.91
2022-07-30T14:54:21.660Z,96385.75
2022-07-30T14:56:53.603Z,96390.94
2022-07-30T14:59:24.773Z,96386.06
2022-07-30T15:01:53.274Z,96387.75
2022-07-30T15:04:23.382Z,96386.28
2022-07-30T15:06:51.858Z,96393.72
2022-07-30T15:09:20.853Z,96388.75
2022-07-30T15:12:23.604Z,96387.09
2022-07-30T15:14:38.571Z,96383.91
2022-07-30T15:17:08.564Z,96388.44
2022-07-30T15:19:50.354Z,96382.47
2022-07-30T15:22:19.872Z,96377.38
2022-07-30T15:24:48.927Z,96380.63
2022-07-30T15:27:17.623Z,96384.00
2022-07-30T15:29:46.083Z,96381.63
2022-07-30T15:32:14.512Z,96390.81
2022-07-30T15:34:44.257Z,96393.19
2022-07-30T15:37:12.612Z,96397.53
2022-07-30T15:39:41.030Z,96396.09
2022-07-30T15:42:09.510Z,96395.78
2022-07-30T15:44:42.277Z,96402.19
2022-07-30T15:47:16.762Z,96396.31
2022-07-30T15:49:46.534Z,96407.59
2022-07-30T15:52:14.915Z,96409.44
2022-07-30T15:54:43.500Z,96408.19
2022-07-30T15:57:11.849Z,96413.72
2022-07-30T15:59:40.252Z,96410.16
2022-07-30T16:02:08.622Z,96413.00
2022-07-30T16:04:37.093Z,96413.38
2022-07-30T16:07:07.939Z,96409.97
2022-07-30T16:09:36.317Z,96400.91
2022-07-30T16:12:05.570Z,96401.22
2022-07-30T16:14:34.187Z,96398.56
2022-07-30T16:17:02.871Z,96398.69
2022-07-30T16:19:31.220Z,96410.09
2022-07-30T16:21:59.903Z,96408.81
2022-07-30T16:24:29.964Z,96403.00
2022-07-30T16:26:58.458Z,96409.94
2022-07-30T16:29:27.162Z,96412.41
2022-07-30T16:31:55.622Z,96416.63
2022-07-30T16:34:26.723Z,96408.09
2022-07-30T16:36:55.743Z,96411.94
2022-07-30T16:39:24.106Z,96415.53
2022-07-30T16:41:53.876Z,96416.06
2022-07-30T16:44:22.283Z,96411.53
2022-07-30T16:46:50.769Z,96409.84
2022-07-30T16:49:19.124Z,96409.97
2022-07-30T16:51:47.486Z,96410.47
2022-07-30T16:54:15.863Z,96415.25
2022-07-30T16:56:44.228Z,96416.97
2022-07-30T16:59:14.761Z,96414.50
2022-07-30T17:01:43.146Z,96421.00
2022-07-30T17:04:11.540Z,96415.50
2022-07-30T17:06:41.105Z,96422.69
2022-07-30T17:09:09.522Z,96427.72
2022-07-30T17:11:46.513Z,96418.66
2022-07-30T17:14:17.966Z,96424.97
2022-07-30T17:16:46.351Z,96434.06
2022-07-30T17:19:14.707Z,96430.34
2022-07-30T17:21:43.075Z,96428.31
2022-07-30T17:24:13.587Z,96428.09
2022-07-30T17:26:43.906Z,96434.88
2022-07-30T17:29:14.687Z,96426.50
2022-07-30T17:31:45.817Z,96426.44
2022-07-30T17:34:16.210Z,96423.34
2022-07-30T17:36:52.649Z,96431.91
2022-07-30T17:40:27.225Z,96425.84
2022-07-30T17:42:11.202Z,96432.66
2022-07-30T17:44:41.100Z,96431.75
2022-07-30T17:47:14.515Z,96432.78
2022-07-30T17:49:43.658Z,96437.47
2022-07-30T17:52:12.098Z,96435.53
2022-07-30T17:54:40.791Z,96424.88
2022-07-30T17:57:09.194Z,96428.41
2022-07-30T17:59:37.647Z,96433.41
2022-07-30T18:02:06.716Z,96431.22
2022-07-30T18:04:36.873Z,96436.63
2022-07-30T18:07:05.770Z,96441.41
2022-07-30T18:09:39.074Z,96435.78
2022-07-30T18:12:09.319Z,96441.09
2022-07-30T18:14:37.740Z,96434.69
2022-07-30T18:17:09.103Z,96433.94
2022-07-30T18:19:42.296Z,96429.94
2022-07-30T18:22:10.687Z,96429.19
2022-07-30T18:24:43.713Z,96429.94
2022-07-30T18:27:12.851Z,96433.72
2022-07-30T18:29:41.357Z,96430.53
2022-07-30T18:32:09.772Z,96437.19
2022-07-30T18:34:38.307Z,96437.44
2022-07-30T18:37:08.090Z,96438.09
2022-07-30T18:39:36.487Z,96444.59
2022-07-30T18:42:05.574Z,96438.34
2022-07-30T18:44:34.201Z,96452.94
2022-07-30T18:47:02.610Z,96455.41
2022-07-30T18:49:38.362Z,96446.00
2022-07-30T18:52:08.570Z,96456.81
2022-07-30T18:54:37.844Z,96455.97
2022-07-30T18:57:08.165Z,96461.75
2022-07-30T18:59:39.903Z,96464.84
2022-07-30T19:02:08.430Z,96472.00
2022-07-30T19:04:37.443Z,96471.53
2022-07-30T19:07:07.387Z,96475.16
2022-07-30T19:09:37.198Z,96480.00
2022-07-30T19:12:06.397Z,96486.69
2022-07-30T19:14:35.205Z,96483.84
2022-07-30T19:17:03.637Z,96495.22
2022-07-30T19:19:42.626Z,96502.66
2022-07-30T19:22:10.997Z,96504.38
2022-07-30T19:24:40.784Z,96504.44
2022-07-30T19:27:13.970Z,96508.38
2022-07-30T19:29:43.497Z,96515.72
2022-07-30T19:32:12.198Z,96510.94
2022-07-30T19:34:43.365Z,96509.41
2022-07-30T19:37:12.273Z,96513.06
2022-07-30T19:40:05.668Z,96516.09
2022-07-30T19:42:30.629Z,96509.44
2022-07-30T19:45:01.277Z,96510.59
2022-07-30T19:47:35.346Z,96513.38
2022-07-30T19:50:09.996Z,96513.38
2022-07-30T19:52:38.617Z,96510.13
2022-07-30T19:55:17.208Z,96519.38
2022-07-30T19:57:57.458Z,96516.59
2022-07-30T20:00:26.910Z,96534.13
2022-07-30T20:02:55.281Z,96547.88
2022-07-30T20:05:24.887Z,96558.59
2022-07-30T20:07:53.449Z,96563.16
2022-07-30T20:10:26.400Z,96562.63
2022-07-30T20:12:58.044Z,96566.94
2022-07-30T20:15:27.019Z,96560.28
2022-07-30T20:17:58.542Z,96567.84
2022-07-30T20:20:26.973Z,96564.06
2022-07-30T20:22:55.442Z,96571.38
2022-07-30T20:25:25.579Z,96565.38
2022-07-30T20:27:53.969Z,96571.59
2022-07-30T20:30:25.486Z,96565.47
2022-07-30T20:32:54.372Z,96560.09
2022-07-30T20:35:26.155Z,96564.31
2022-07-30T20:37:56.418Z,96564.81
2022-07-30T20:40:27.150Z,96566.00
2022-07-30T20:42:55.868Z,96563.16
2022-07-30T20:45:25.344Z,96566.84
2022-07-30T20:48:17.466Z,96566.03
2022-07-30T20:50:53.754Z,96565.41
2022-07-30T20:53:24.125Z,96575.22
2022-07-30T20:56:03.350Z,96576.59
2022-07-30T20:58:31.725Z,96579.28
2022-07-30T21:01:01.944Z,96586.97
2022-07-30T21:03:33.252Z,96579.59
2022-07-30T21:06:01.611Z,96582.16
2022-07-30T21:08:29.982Z,96579.84
2022-07-30T21:11:00.229Z,96575.38
2022-07-30T21:13:30.130Z,96578.06
2022-07-30T21:16:02.929Z,96583.25
2022-07-30T21:18:33.053Z,96584.44
2022-07-30T21:21:05.500Z,96577.00
2022-07-30T21:23:34.318Z,96585.22
2022-07-30T21:26:06.951Z,96583.84
2022-07-30T21:28:40.387Z,96588.94
2022-07-30T21:31:09.212Z,96592.72
2022-07-30T21:33:37.882Z,96593.00
2022-07-30T21:38:55.718Z,96594.66
2022-07-30T21:41:39.954Z,96592.31
2022-07-30T21:44:10.345Z,96591.97
2022-07-30T21:46:40.482Z,96591.25
2022-07-30T21:49:10.285Z,96589.84
2022-07-30T21:51:40.014Z,96595.63
2022-07-30T21:54:08.684Z,96593.56
2022-07-30T21:56:41.479Z,96591.88
2022-07-30T21:59:11.595Z,96590.22
2022-07-30T22:01:47.689Z,96589.22
2022-07-30T22:04:16.522Z,96591.47
2022-07-30T22:06:45.084Z,96587.47
2022-07-30T22:09:19.242Z,96588.00
2022-07-30T22:12:06.349Z,96586.38
2022-07-30T22:14:39.172Z,96579.25
2022-07-30T22:17:22.408Z,96590.00
2022-07-30T22:19:52.142Z,96593.56
2022-07-30T22:22:27.150Z,96586.53
2022-07-30T22:24:59.942Z,96590.66
2022-07-30T22:27:39.852Z,96596.66
2022-07-30T22:30:13.872Z,96600.25
2022-07-30T22:32:42.936Z,96586.16
2022-07-30T22:35:11.753Z,96585.66
2022-07-30T22:37:40.127Z,96584.66
2022-07-30T22:40:09.139Z,96598.94
2022-07-30T22:42:49.808Z,96601.25
2022-07-30T22:45:42.253Z,96597.50
2022-07-30T22:48:10.202Z,96591.66
2022-07-30T22:50:40.222Z,96585.13
2022-07-30T22:54:02.489Z,96586.06
2022-07-30T22:55:58.756Z,96586.84
2022-07-30T22:58:28.775Z,96589.53
2022-07-30T23:00:59.326Z,96591.53
2022-07-30T23:03:27.715Z,96588.59
2022-07-30T23:05:57.200Z,96587.63
2022-07-30T23:08:29.373Z,96585.03
2022-07-30T23:10:59.778Z,96585.03
2022-07-30T23:12:32.449Z,96594.88
2022-07-30T23:13:28.839Z,96581.53
2022-07-30T23:18:26.935Z,96594.75
2022-07-30T23:20:59.993Z,96594.75
2022-07-30T23:23:30.972Z,96587.53
2022-07-30T23:26:03.084Z,96594.53
2022-07-30T23:28:31.705Z,96588.16
2022-07-30T23:31:00.250Z,96587.94
2022-07-30T23:33:30.754Z,96587.13
2022-07-30T23:36:00.200Z,96584.03
2022-07-30T23:38:28.834Z,96586.47
2022-07-30T23:41:01.229Z,96579.69
2022-07-30T23:43:30.005Z,96580.50
2022-07-30T23:45:58.573Z,96590.84
2022-07-30T23:48:27.041Z,96586.47
2022-07-30T23:50:56.780Z,96583.31
2022-07-30T23:53:25.443Z,96587.44
2022-07-30T23:55:53.895Z,96589.75
2022-07-30T23:58:22.937Z,96588.88
